Time;durP1;ratioP1;P1;durP2;ratioP2;P2;SDS_P1;SDS_P2;PMS_P1;PMS_P2;Temp;Humidity;BMP_temperature;BMP_pressure;BME280_temperature;BME280_humidity;BME280_pressure;Samples;Min_cycle;Max_cycle;Signal;HPM_P1;HPM_P2
2020/01/16 00:03:15;;;;;;;9.3;5.8;;;;;;;1.23;72.60645;948.2991;;;;
2020/01/16 00:05:40;;;;;;;9.8;5.7;;;;;;;1.16;72.83984;948.2921;;;;
2020/01/16 00:08:06;;;;;;;10;5.6;;;;;;;1.25;72.43066;948.2863;;;;
2020/01/16 00:10:31;;;;;;;11.4;5.5;;;;;;;1.21;72.65918;948.3365;;;;
2020/01/16 00:12:57;;;;;;;11.3;6.1;;;;;;;1.17;72.80957;948.3384;;;;
2020/01/16 00:15:23;;;;;;;11.2;6.5;;;;;;;1.07;73.42773;948.3539;;;;
2020/01/16 00:17:48;;;;;;;11.2;6.5;;;;;;;1.04;73.71289;948.3691;;;;
2020/01/16 00:20:13;;;;;;;11.2;7;;;;;;;1.12;73.35742;948.4637;;;;
2020/01/16 00:22:39;;;;;;;11.1;6.5;;;;;;;1.16;73.23145;948.4913;;;;
2020/01/16 00:25:04;;;;;;;11.6;6.3;;;;;;;1.11;73.48926;948.4983;;;;
2020/01/16 00:27:29;;;;;;;11.1;6.6;;;;;;;1.01;74.09766;948.5134;;;;
2020/01/16 00:29:55;;;;;;;12.2;7.2;;;;;;;0.96;74.25684;948.5347;;;;
2020/01/16 00:32:20;;;;;;;12.2;7.6;;;;;;;0.87;74.55371;948.5934;;;;
2020/01/16 00:34:45;;;;;;;13.7;7.5;;;;;;;0.79;74.93066;948.5952;;;;
2020/01/16 00:37:10;;;;;;;11;6;;;;;;;0.74;75.12305;948.582;;;;
2020/01/16 00:39:36;;;;;;;9.4;5.7;;;;;;;0.8;74.82031;948.5522;;;;
2020/01/16 00:42:01;;;;;;;10.4;6;;;;;;;0.91;74.39258;948.5629;;;;
2020/01/16 00:44:26;;;;;;;7.4;5;;;;;;;1.03;73.86816;948.587;;;;
2020/01/16 00:46:52;;;;;;;7.8;4.9;;;;;;;1.09;73.86621;948.5648;;;;
2020/01/16 00:49:18;;;;;;;8.4;5;;;;;;;1.1;73.8252;948.6228;;;;
2020/01/16 00:51:43;;;;;;;7.6;5.1;;;;;;;1.13;73.69531;948.5851;;;;
2020/01/16 00:54:08;;;;;;;8.2;5;;;;;;;0.97;74.03516;948.6928;;;;
2020/01/16 00:56:33;;;;;;;8.7;5.3;;;;;;;0.87;74.62109;948.7209;;;;
2020/01/16 00:58:58;;;;;;;6.5;4.2;;;;;;;1.04;74.09277;948.7517;;;;
2020/01/16 01:01:24;;;;;;;6.6;4.5;;;;;;;1.08;73.96484;948.8289;;;;
2020/01/16 01:03:49;;;;;;;7.5;4.4;;;;;;;1.06;73.96191;948.7863;;;;
2020/01/16 01:06:15;;;;;;;7.3;4;;;;;;;1;74.15332;948.8251;;;;
2020/01/16 01:08:40;;;;;;;8.7;4.1;;;;;;;1;74.1875;948.7744;;;;
2020/01/16 01:11:06;;;;;;;8.2;4.6;;;;;;;1.01;74.42188;948.796;;;;
2020/01/16 01:13:31;;;;;;;7.2;4.4;;;;;;;1.08;73.89844;948.7681;;;;
2020/01/16 01:15:55;;;;;;;6.3;4.2;;;;;;;1.08;73.99902;948.7169;;;;
2020/01/16 01:18:21;;;;;;;7;4;;;;;;;1.18;73.87207;948.8401;;;;
2020/01/16 01:20:47;;;;;;;6.9;4.2;;;;;;;1.28;73.46484;948.7949;;;;
2020/01/16 01:23:13;;;;;;;5.6;3.5;;;;;;;1.32;73.56055;948.8921;;;;
2020/01/16 01:25:38;;;;;;;5.2;3.6;;;;;;;1.39;73.29199;948.9325;;;;
2020/01/16 01:28:03;;;;;;;6.6;3.6;;;;;;;1.5;73;948.9905;;;;
2020/01/16 01:30:29;;;;;;;5.5;3.7;;;;;;;1.43;73.24609;949.0374;;;;
2020/01/16 01:32:54;;;;;;;5.4;3.3;;;;;;;1.41;73.40918;948.978;;;;
2020/01/16 01:35:24;;;;;;;5.1;3.1;;;;;;;1.41;73.36426;948.9536;;;;
2020/01/16 01:37:53;;;;;;;5.2;3.1;;;;;;;1.5;72.90918;948.8922;;;;
2020/01/16 01:40:23;;;;;;;5.3;2.8;;;;;;;1.68;72.29102;948.9496;;;;
2020/01/16 01:42:42;;;;;;;6;2.8;;;;;;;1.78;71.81738;948.8741;;;;
2020/01/16 01:45:01;;;;;;;6.1;2.9;;;;;;;1.99;71.43848;948.9133;;;;
2020/01/16 01:47:26;;;;;;;5.5;3;;;;;;;1.93;71.54004;948.8924;;;;
2020/01/16 01:49:51;;;;;;;6.4;3.2;;;;;;;1.87;71.42969;948.8929;;;;
2020/01/16 01:52:16;;;;;;;4.5;2.9;;;;;;;1.99;71.33789;948.899;;;;
2020/01/16 01:54:41;;;;;;;5.2;2.9;;;;;;;2.09;70.91992;948.9157;;;;
2020/01/16 01:57:06;;;;;;;4.2;2.7;;;;;;;2.16;70.7959;948.9588;;;;
2020/01/16 01:59:31;;;;;;;5.8;3.2;;;;;;;2.14;70.88086;948.9467;;;;
2020/01/16 02:01:57;;;;;;;6.1;3;;;;;;;2.01;71.33008;948.9478;;;;
2020/01/16 02:04:22;;;;;;;6.5;2.9;;;;;;;1.93;71.72852;948.9637;;;;
2020/01/16 02:06:47;;;;;;;6.2;3.4;;;;;;;1.91;71.94922;948.939;;;;
2020/01/16 02:09:13;;;;;;;5.4;3;;;;;;;1.85;72.1416;948.8839;;;;
2020/01/16 02:11:38;;;;;;;4.8;3.2;;;;;;;1.86;72.20996;948.9008;;;;
2020/01/16 02:14:03;;;;;;;4.4;3.1;;;;;;;1.86;72.21191;948.8563;;;;
2020/01/16 02:16:29;;;;;;;5.5;2.9;;;;;;;1.77;72.46289;948.8873;;;;
2020/01/16 02:18:53;;;;;;;4.2;2.8;;;;;;;1.71;72.69824;948.9025;;;;
2020/01/16 02:21:18;;;;;;;4.5;2.9;;;;;;;1.77;72.66504;948.8652;;;;
2020/01/16 02:23:44;;;;;;;5.5;3;;;;;;;1.79;72.68066;948.8658;;;;
2020/01/16 02:26:09;;;;;;;4.5;2.9;;;;;;;1.78;72.60059;948.83;;;;
2020/01/16 02:28:35;;;;;;;4.5;3.1;;;;;;;1.85;72.41016;948.778;;;;
2020/01/16 02:31:01;;;;;;;5.6;3.2;;;;;;;1.87;72.35742;948.8156;;;;
2020/01/16 02:33:26;;;;;;;6.1;2.9;;;;;;;1.92;72.42188;948.8604;;;;
2020/01/16 02:35:52;;;;;;;6.1;3;;;;;;;1.96;72.05957;948.8455;;;;
2020/01/16 02:38:17;;;;;;;6.6;3;;;;;;;2.08;71.77832;948.8199;;;;
2020/01/16 02:40:42;;;;;;;3.8;2.6;;;;;;;2.24;71.22363;948.8114;;;;
2020/01/16 02:43:07;;;;;;;4.8;3;;;;;;;2.31;70.87598;948.8409;;;;
2020/01/16 02:45:33;;;;;;;5.3;2.8;;;;;;;2.13;71.38281;948.8398;;;;
2020/01/16 02:47:59;;;;;;;4.9;3.1;;;;;;;2.07;71.69727;948.9258;;;;
2020/01/16 02:50:24;;;;;;;3.7;2.7;;;;;;;2.16;71.55664;948.9038;;;;
2020/01/16 02:52:50;;;;;;;6.2;3.6;;;;;;;2.33;71.00391;948.9548;;;;
2020/01/16 02:55:15;;;;;;;11.3;7.2;;;;;;;2.36;71.16504;948.94;;;;
2020/01/16 02:57:40;;;;;;;8.9;5.5;;;;;;;2.5;70.80859;948.9615;;;;
2020/01/16 03:00:05;;;;;;;7.5;5.3;;;;;;;2.57;70.52734;948.9279;;;;
2020/01/16 03:02:31;;;;;;;9;6;;;;;;;2.49;71.00684;948.9274;;;;
2020/01/16 03:04:56;;;;;;;9.9;6.7;;;;;;;2.46;70.85645;948.9225;;;;
2020/01/16 03:07:22;;;;;;;10;5.2;;;;;;;2.66;70.19434;948.9542;;;;
2020/01/16 03:09:47;;;;;;;4.8;3.5;;;;;;;2.79;69.67773;948.8567;;;;
2020/01/16 03:12:12;;;;;;;4.1;2.6;;;;;;;2.78;69.71094;948.8753;;;;
2020/01/16 03:14:37;;;;;;;3.7;2.6;;;;;;;2.8;69.71387;948.8981;;;;
2020/01/16 03:17:03;;;;;;;4.9;2.7;;;;;;;2.65;70.42871;948.9124;;;;
2020/01/16 03:19:28;;;;;;;4.1;2.7;;;;;;;2.61;70.70313;948.9587;;;;
2020/01/16 03:21:54;;;;;;;4.6;2.3;;;;;;;2.57;70.52734;948.9827;;;;
2020/01/16 03:24:19;;;;;;;3.7;2.3;;;;;;;2.61;70.62402;948.9632;;;;
2020/01/16 03:26:44;;;;;;;3.3;2.2;;;;;;;2.64;70.33789;948.9706;;;;
2020/01/16 03:29:10;;;;;;;5.6;2.4;;;;;;;2.59;70.63086;948.9508;;;;
2020/01/16 03:31:34;;;;;;;4.5;2.4;;;;;;;2.57;70.68457;948.8948;;;;
2020/01/16 03:34:00;;;;;;;4.3;2.7;;;;;;;2.52;71.11328;948.9244;;;;
2020/01/16 03:36:25;;;;;;;4;2.4;;;;;;;2.56;70.75;948.9156;;;;
2020/01/16 03:38:50;;;;;;;3.7;2.6;;;;;;;2.68;70.6123;948.8728;;;;
2020/01/16 03:41:15;;;;;;;2.7;2;;;;;;;2.83;69.61719;948.9138;;;;
2020/01/16 03:43:40;;;;;;;3.5;2.2;;;;;;;2.96;69.4043;948.9163;;;;
2020/01/16 03:46:05;;;;;;;10;2.7;;;;;;;2.96;69.28125;948.9518;;;;
2020/01/16 03:48:31;;;;;;;3.1;2.1;;;;;;;2.97;69.45996;948.9033;;;;
2020/01/16 03:51:05;;;;;;;3.8;2.4;;;;;;;2.97;69.91992;948.9773;;;;
2020/01/16 03:53:30;;;;;;;4.5;2.2;;;;;;;3.04;69.9209;948.9815;;;;
2020/01/16 03:55:53;;;;;;;4.6;2.3;;;;;;;2.93;70.08301;949.0128;;;;
2020/01/16 04:05:02;;;;;;;4.4;2.9;;;;;;;2.88;70.31055;949.0449;;;;
2020/01/16 04:07:20;;;;;;;7.2;3.5;;;;;;;2.93;70.23926;949.0043;;;;
2020/01/16 04:09:45;;;;;;;10.6;4.5;;;;;;;2.98;70.0127;949.0143;;;;
2020/01/16 04:12:10;;;;;;;12;4.3;;;;;;;3;70.02734;949.0255;;;;
2020/01/16 04:14:35;;;;;;;9.5;3.9;;;;;;;3.04;70.01172;949.04;;;;
2020/01/16 04:17:00;;;;;;;8.9;3.9;;;;;;;3.15;69.74805;949.0386;;;;
2020/01/16 04:19:26;;;;;;;8;3.6;;;;;;;3.28;69.26367;949.0489;;;;
2020/01/16 04:21:51;;;;;;;10.5;2.8;;;;;;;3.26;69.13867;949.0066;;;;
2020/01/16 04:24:16;;;;;;;4.9;2.8;;;;;;;3.37;69.03223;949.0616;;;;
2020/01/16 04:26:41;;;;;;;11.2;4.3;;;;;;;3.41;69.28516;949.0848;;;;
2020/01/16 04:29:06;;;;;;;7.6;4;;;;;;;3.27;70.11719;949.0455;;;;
2020/01/16 04:31:31;;;;;;;7.1;3.7;;;;;;;3.15;70.5332;948.9781;;;;
2020/01/16 04:33:56;;;;;;;4.4;2.9;;;;;;;3.19;70.26074;949.0234;;;;
2020/01/16 04:36:22;;;;;;;5.1;3;;;;;;;3.13;70.44043;948.9981;;;;
2020/01/16 04:38:47;;;;;;;5.1;2.7;;;;;;;3.18;70.15625;949.0261;;;;
2020/01/16 04:41:12;;;;;;;5.5;2.6;;;;;;;3.33;69.41797;949.0173;;;;
2020/01/16 04:43:37;;;;;;;4.6;2.8;;;;;;;3.34;69.24121;948.9699;;;;
2020/01/16 04:46:03;;;;;;;6.6;2.7;;;;;;;3.46;69.07031;949.0426;;;;
2020/01/16 04:48:28;;;;;;;4.6;2;;;;;;;3.51;67.86426;948.9994;;;;
2020/01/16 04:50:53;;;;;;;4.2;2.4;;;;;;;3.65;68.04492;948.992;;;;
2020/01/16 04:53:18;;;;;;;4.9;3.1;;;;;;;3.58;68.63965;948.9576;;;;
2020/01/16 04:55:43;;;;;;;4;2.9;;;;;;;3.47;69.4209;949.0614;;;;
2020/01/16 04:58:08;;;;;;;4.4;3.3;;;;;;;3.42;69.74902;948.9727;;;;
2020/01/16 05:00:33;;;;;;;5.7;3.2;;;;;;;3.37;69.9873;949.1042;;;;
2020/01/16 05:02:58;;;;;;;4.3;3;;;;;;;3.25;70.01172;949.0444;;;;
2020/01/16 05:05:24;;;;;;;6.2;3.4;;;;;;;3.28;70.28516;949.0876;;;;
2020/01/16 05:07:49;;;;;;;4.7;3.3;;;;;;;3.32;69.77734;949.0837;;;;
2020/01/16 05:10:14;;;;;;;4.3;3.2;;;;;;;3.36;69.57031;949.0419;;;;
2020/01/16 05:12:39;;;;;;;6.1;3.6;;;;;;;3.48;69.47754;949.0295;;;;
2020/01/16 05:15:04;;;;;;;6.6;3.5;;;;;;;3.51;69.53906;949.01;;;;
2020/01/16 05:17:29;;;;;;;4.8;3.1;;;;;;;3.46;69.70996;949.0231;;;;
2020/01/16 05:19:55;;;;;;;9.3;3.8;;;;;;;3.35;69.99414;948.9985;;;;
2020/01/16 05:22:20;;;;;;;7;3.9;;;;;;;3.32;70.22559;948.9858;;;;
2020/01/16 05:24:45;;;;;;;7.1;4.4;;;;;;;3.35;70.15137;948.9592;;;;
2020/01/16 05:27:10;;;;;;;6.3;4.4;;;;;;;3.22;70.60156;948.9681;;;;
2020/01/16 05:29:36;;;;;;;7.4;4.9;;;;;;;3.28;70.55469;949.0111;;;;
2020/01/16 05:32:01;;;;;;;7.5;4.2;;;;;;;3.25;70.65137;948.9821;;;;
2020/01/16 05:34:26;;;;;;;7.1;4.3;;;;;;;3.26;70.60742;949.032;;;;
2020/01/16 05:36:52;;;;;;;5.2;3.5;;;;;;;3.24;70.43652;948.9957;;;;
2020/01/16 05:39:17;;;;;;;6.4;3.7;;;;;;;3.28;70.45313;948.967;;;;
2020/01/16 05:41:42;;;;;;;5.7;3.5;;;;;;;3.25;70.31445;949.0233;;;;
2020/01/16 05:44:07;;;;;;;8;3.7;;;;;;;3.24;70.29004;949.0593;;;;
2020/01/16 05:46:32;;;;;;;5.1;3.3;;;;;;;3.13;70.70898;949.1042;;;;
2020/01/16 05:48:57;;;;;;;7.2;3.7;;;;;;;3.13;70.85645;949.0416;;;;
2020/01/16 05:51:23;;;;;;;6.8;3.8;;;;;;;3.13;70.77734;949.1895;;;;
2020/01/16 05:53:49;;;;;;;9;5.4;;;;;;;3.17;70.89746;949.1703;;;;
2020/01/16 05:56:17;;;;;;;7.3;5.3;;;;;;;2.97;71.7373;949.0676;;;;
2020/01/16 05:58:44;;;;;;;10.1;5.6;;;;;;;2.86;72.24609;949.1756;;;;
2020/01/16 06:01:20;;;;;;;10.8;6.1;;;;;;;2.75;72.75684;949.1884;;;;
2020/01/16 06:03:40;;;;;;;10.6;6;;;;;;;2.83;72.44336;949.2844;;;;
2020/01/16 06:06:01;;;;;;;9.6;5.5;;;;;;;2.91;72.07617;949.3492;;;;
2020/01/16 06:08:20;;;;;;;11.7;6.7;;;;;;;2.98;72.08691;949.2249;;;;
2020/01/16 06:10:45;;;;;;;12.3;7.4;;;;;;;3.01;71.9248;949.3568;;;;
2020/01/16 06:13:10;;;;;;;16.2;8.2;;;;;;;2.95;71.91504;949.3959;;;;
2020/01/16 06:15:35;;;;;;;22;12.7;;;;;;;2.91;72.14355;949.3666;;;;
2020/01/16 06:18:01;;;;;;;25.3;14.1;;;;;;;2.9;72.20898;949.3984;;;;
2020/01/16 06:20:26;;;;;;;33.7;19.6;;;;;;;2.88;72.20605;949.4397;;;;
2020/01/16 06:22:51;;;;;;;41.3;22.7;;;;;;;2.86;72.11328;949.4433;;;;
2020/01/16 06:25:30;;;;;;;43.4;23.7;;;;;;;2.84;72.32227;949.502;;;;
2020/01/16 06:27:55;;;;;;;46.7;25.1;;;;;;;2.82;72.35254;949.4388;;;;
2020/01/16 06:30:20;;;;;;;49.1;26.7;;;;;;;2.84;72.28809;949.5328;;;;
2020/01/16 06:32:45;;;;;;;46.1;24.9;;;;;;;2.69;72.93457;949.5112;;;;
2020/01/16 06:35:10;;;;;;;43.1;23.9;;;;;;;2.51;73.70996;949.5838;;;;
2020/01/16 06:37:35;;;;;;;43.5;24.7;;;;;;;2.43;74.22461;949.5588;;;;
2020/01/16 06:40:00;;;;;;;38.3;21;;;;;;;2.4;74.27441;949.5834;;;;
2020/01/16 06:42:26;;;;;;;36.3;20.9;;;;;;;2.28;74.74609;949.5756;;;;
2020/01/16 06:44:51;;;;;;;27.9;14.5;;;;;;;2.13;75.36914;949.5447;;;;
2020/01/16 06:47:16;;;;;;;27.1;15.2;;;;;;;2.05;75.52344;949.5283;;;;
2020/01/16 06:49:41;;;;;;;21.2;11.7;;;;;;;2.02;75.49609;949.4919;;;;
2020/01/16 06:52:06;;;;;;;13.9;8.5;;;;;;;2.06;75.35547;949.5358;;;;
2020/01/16 06:54:32;;;;;;;30.7;16.3;;;;;;;2.09;75.25;949.4961;;;;
2020/01/16 06:56:57;;;;;;;13.7;8.6;;;;;;;2.18;74.74023;949.4735;;;;
2020/01/16 06:59:23;;;;;;;47.4;22.2;;;;;;;2.16;74.69238;949.4994;;;;
2020/01/16 07:01:49;;;;;;;45.7;22.3;;;;;;;2.12;74.88574;949.4913;;;;
2020/01/16 07:04:14;;;;;;;55.9;27.6;;;;;;;2.16;74.54492;949.5273;;;;
2020/01/16 07:06:39;;;;;;;36.3;18.4;;;;;;;2.17;74.41211;949.5703;;;;
2020/01/16 07:09:04;;;;;;;27.4;14.6;;;;;;;2.29;73.97559;949.597;;;;
2020/01/16 07:11:30;;;;;;;11.9;6.4;;;;;;;2.24;73.94336;949.6889;;;;
2020/01/16 07:13:55;;;;;;;11.5;7;;;;;;;2.21;74.12891;949.622;;;;
2020/01/16 07:16:20;;;;;;;11.5;5.7;;;;;;;2.2;74.74316;949.658;;;;
2020/01/16 07:18:46;;;;;;;12.6;5.8;;;;;;;2.25;74.74121;949.6423;;;;
2020/01/16 07:21:11;;;;;;;10.1;6;;;;;;;2.32;74.34961;949.6604;;;;
2020/01/16 07:23:36;;;;;;;10.9;6.1;;;;;;;2.25;73.8457;949.731;;;;
2020/01/16 07:26:01;;;;;;;7.3;5.2;;;;;;;2.16;74.2334;949.6219;;;;
2020/01/16 07:28:26;;;;;;;10.8;5.2;;;;;;;2.17;74.30176;949.6766;;;;
2020/01/16 07:30:51;;;;;;;7.7;4.4;;;;;;;2.21;74.13086;949.6528;;;;
2020/01/16 07:33:16;;;;;;;7.1;4.3;;;;;;;2.3;73.84375;949.7012;;;;
2020/01/16 07:35:43;;;;;;;8.3;4.5;;;;;;;2.34;73.56836;949.8119;;;;
2020/01/16 07:38:08;;;;;;;7.5;4;;;;;;;2.38;73.09473;949.7767;;;;
2020/01/16 07:40:33;;;;;;;9.2;4;;;;;;;2.28;73.4248;949.7139;;;;
2020/01/16 07:42:59;;;;;;;10.9;5.1;;;;;;;2.32;73.58789;949.7138;;;;
2020/01/16 07:45:24;;;;;;;13.5;5.7;;;;;;;2.49;73.14746;949.6512;;;;
2020/01/16 07:47:49;;;;;;;10.6;6.7;;;;;;;2.59;72.80664;949.7791;;;;
2020/01/16 07:50:14;;;;;;;12.7;6.3;;;;;;;2.61;72.55078;949.7469;;;;
2020/01/16 07:52:39;;;;;;;9.5;6.8;;;;;;;2.53;72.84082;949.6652;;;;
2020/01/16 07:55:04;;;;;;;15.1;9.3;;;;;;;2.59;72.25586;949.7244;;;;
2020/01/16 07:57:31;;;;;;;14.8;6.1;;;;;;;2.7;71.9834;949.5675;;;;
2020/01/16 07:59:56;;;;;;;10.5;6.5;;;;;;;2.92;71.49316;949.6699;;;;
2020/01/16 08:02:21;;;;;;;11.4;6.4;;;;;;;3.18;70.60547;949.7107;;;;
2020/01/16 08:04:48;;;;;;;12;6.3;;;;;;;3.44;69.60645;949.6871;;;;
2020/01/16 08:07:16;;;;;;;13.7;7.3;;;;;;;3.52;69.37207;949.6317;;;;
2020/01/16 08:12:40;;;;;;;12.1;7.1;;;;;;;3.71;68.7832;949.6052;;;;
2020/01/16 08:14:27;;;;;;;14.1;7.1;;;;;;;4.19;66.90332;949.5879;;;;
2020/01/16 08:16:53;;;;;;;11.9;7.1;;;;;;;4.53;65.57129;949.5695;;;;
2020/01/16 08:19:18;;;;;;;13.9;7.9;;;;;;;4.59;65.23438;949.5598;;;;
2020/01/16 08:21:43;;;;;;;40.4;27.1;;;;;;;4.52;65.45801;949.5661;;;;
2020/01/16 08:24:08;;;;;;;21.6;15;;;;;;;4.93;64.37109;949.567;;;;
2020/01/16 08:26:34;;;;;;;19.2;13.1;;;;;;;5.15;63.32324;949.5527;;;;
2020/01/16 08:28:59;;;;;;;20;13.5;;;;;;;5.68;61.98926;949.4598;;;;
2020/01/16 08:31:24;;;;;;;17.9;11.8;;;;;;;6.86;57.89453;949.5119;;;;
2020/01/16 08:33:49;;;;;;;21;12.5;;;;;;;7.57;55.26758;949.4294;;;;
2020/01/16 08:36:14;;;;;;;19.7;10.5;;;;;;;8.41;52.78516;949.4464;;;;
2020/01/16 08:38:41;;;;;;;13.2;8.5;;;;;;;8.95;50.73633;949.4973;;;;
2020/01/16 08:41:06;;;;;;;10.8;6.7;;;;;;;8.13;52.36523;949.4347;;;;
2020/01/16 08:43:32;;;;;;;10.7;6.6;;;;;;;8.2;52.44238;949.4039;;;;
2020/01/16 08:45:57;;;;;;;11.3;6.3;;;;;;;8.91;51.03809;949.4133;;;;
2020/01/16 08:48:22;;;;;;;10.8;6.1;;;;;;;9.13;50.06348;949.3231;;;;
2020/01/16 08:50:47;;;;;;;8.7;3.6;;;;;;;9.56;48.6084;949.3461;;;;
2020/01/16 08:53:13;;;;;;;8.2;4.2;;;;;;;10.64;45.98926;949.3611;;;;
2020/01/16 08:55:38;;;;;;;7.5;3.7;;;;;;;10.88;45.04492;949.3175;;;;
2020/01/16 08:58:05;;;;;;;9;3.9;;;;;;;10.36;46.20996;949.3583;;;;
2020/01/16 09:00:30;;;;;;;12.9;3.7;;;;;;;9.63;47.81934;949.3016;;;;
2020/01/16 09:02:55;;;;;;;17.8;3.3;;;;;;;8.68;49.30469;949.3147;;;;
2020/01/16 09:05:21;;;;;;;13.6;3.2;;;;;;;7.53;52.38184;949.3547;;;;
2020/01/16 09:07:46;;;;;;;12.7;3.4;;;;;;;6.92;54.1416;949.3844;;;;
2020/01/16 09:10:11;;;;;;;11.2;5.4;;;;;;;6.89;55.79199;949.4172;;;;
2020/01/16 09:12:36;;;;;;;16;7;;;;;;;6.86;56.07129;949.3978;;;;
2020/01/16 09:15:02;;;;;;;15.4;6.9;;;;;;;6.61;57.13574;949.3395;;;;
2020/01/16 09:17:27;;;;;;;16.3;8.1;;;;;;;6.61;57.24902;949.3553;;;;
2020/01/16 09:19:53;;;;;;;11.1;5.9;;;;;;;6.49;56.99512;949.3739;;;;
2020/01/16 09:22:19;;;;;;;26;9.6;;;;;;;6.37;57.1709;949.4578;;;;
2020/01/16 09:24:44;;;;;;;38.3;9.8;;;;;;;6.42;57.92383;949.4253;;;;
2020/01/16 09:27:11;;;;;;;89.4;11.5;;;;;;;6.42;58.3418;949.3453;;;;
2020/01/16 09:29:36;;;;;;;53.1;10.2;;;;;;;6.33;58.7832;949.3289;;;;
2020/01/16 09:32:02;;;;;;;17.5;7.3;;;;;;;6.25;58.6709;949.2852;;;;
2020/01/16 09:34:26;;;;;;;17.5;7.3;;;;;;;6.26;59.33789;949.2734;;;;
2020/01/16 09:36:52;;;;;;;31.5;7.3;;;;;;;6.28;58.90039;949.2385;;;;
2020/01/16 09:39:17;;;;;;;37.3;8.2;;;;;;;6.44;59.30566;949.1855;;;;
2020/01/16 09:41:42;;;;;;;15.8;6.2;;;;;;;6.56;57.88672;949.1339;;;;
2020/01/16 09:44:07;;;;;;;23.8;5.6;;;;;;;6.69;56.39844;949.058;;;;
2020/01/16 09:46:32;;;;;;;73.4;9.9;;;;;;;6.93;56.30762;949.0286;;;;
2020/01/16 09:48:58;;;;;;;92.7;11.7;;;;;;;7.03;56.3877;949.0139;;;;
2020/01/16 09:51:23;;;;;;;65.5;9.9;;;;;;;7.24;56.06348;949.0547;;;;
2020/01/16 09:53:48;;;;;;;70.7;9.8;;;;;;;7.36;55.36426;949.05;;;;
2020/01/16 09:56:15;;;;;;;46.4;7.5;;;;;;;7.46;55.06152;949.0345;;;;
2020/01/16 09:58:40;;;;;;;72.2;11;;;;;;;7.58;54.2373;948.9107;;;;
2020/01/16 10:01:05;;;;;;;23.8;5.3;;;;;;;7.7;54.02539;948.8803;;;;
2020/01/16 10:03:30;;;;;;;33;5.5;;;;;;;7.76;54.36133;948.8873;;;;
2020/01/16 10:05:55;;;;;;;14.5;4.1;;;;;;;7.87;53.96582;948.8179;;;;
2020/01/16 10:08:23;;;;;;;32.1;5.2;;;;;;;8.02;53.46484;948.8325;;;;
2020/01/16 10:10:45;;;;;;;22.7;4.1;;;;;;;8.03;52.60156;948.7883;;;;
2020/01/16 10:13:11;;;;;;;11.4;3.4;;;;;;;8.05;51.83301;948.7192;;;;
2020/01/16 10:15:42;;;;;;;15.4;2.9;;;;;;;8.27;51.51855;948.6433;;;;
2020/01/16 10:20:33;;;;;;;32.4;3.9;;;;;;;8.62;49.52637;948.6013;;;;
2020/01/16 10:22:52;;;;;;;20.8;2.5;;;;;;;8.73;49.34473;948.5214;;;;
2020/01/16 10:25:17;;;;;;;14.8;2;;;;;;;8.84;46.66211;948.5197;;;;
2020/01/16 10:27:42;;;;;;;8.9;2.1;;;;;;;8.93;46.50098;948.5115;;;;
2020/01/16 10:30:09;;;;;;;15.7;2.3;;;;;;;8.99;46.51953;948.4341;;;;
2020/01/16 10:32:34;;;;;;;9.7;2.2;;;;;;;8.97;46.13086;948.3095;;;;
2020/01/16 10:34:59;;;;;;;7.8;1.7;;;;;;;9.19;45.99414;948.3159;;;;
2020/01/16 10:37:25;;;;;;;8.8;2.1;;;;;;;9.22;45.20117;948.2194;;;;
2020/01/16 10:39:50;;;;;;;5.8;1.6;;;;;;;9.35;44.57715;948.2424;;;;
2020/01/16 10:42:15;;;;;;;11.3;1.8;;;;;;;9.49;45.09277;948.1696;;;;
2020/01/16 10:44:40;;;;;;;3.8;1.8;;;;;;;9.81;44.29395;948.1572;;;;
2020/01/16 10:47:05;;;;;;;26.7;4;;;;;;;10.07;44.57227;948.0381;;;;
2020/01/16 10:49:31;;;;;;;5.5;2.2;;;;;;;10.4;43.93359;948.0235;;;;
2020/01/16 10:51:56;;;;;;;13.6;3.1;;;;;;;10.64;43.06641;948.0014;;;;
2020/01/16 10:54:21;;;;;;;19;2.7;;;;;;;10.79;43.20703;947.9908;;;;
2020/01/16 10:56:47;;;;;;;6.6;1.8;;;;;;;10.99;42.34668;947.8522;;;;
2020/01/16 10:59:12;;;;;;;10.3;2.1;;;;;;;11.11;41.80957;947.8528;;;;
2020/01/16 11:01:38;;;;;;;5.9;1.7;;;;;;;11.13;41.2627;947.8008;;;;
2020/01/16 11:04:03;;;;;;;8.4;2;;;;;;;11.01;41.21582;947.8248;;;;
2020/01/16 11:06:28;;;;;;;8.8;1.9;;;;;;;11.26;41.61816;947.7586;;;;
2020/01/16 11:08:54;;;;;;;22.4;2.8;;;;;;;11.46;40.74512;947.6691;;;;
2020/01/16 11:11:19;;;;;;;9.9;1.8;;;;;;;11.61;39.7168;947.6609;;;;
2020/01/16 11:13:44;;;;;;;4.9;1.7;;;;;;;11.78;39.56152;947.6567;;;;
2020/01/16 11:16:10;;;;;;;7.7;1.7;;;;;;;11.74;39.83301;947.6256;;;;
2020/01/16 11:18:34;;;;;;;5.1;1.5;;;;;;;11.87;40.08496;947.5887;;;;
2020/01/16 11:21:00;;;;;;;10.7;2.1;;;;;;;11.98;39.95703;947.5613;;;;
2020/01/16 11:23:25;;;;;;;5.3;1.6;;;;;;;11.99;38.73242;947.4938;;;;
2020/01/16 11:25:50;;;;;;;4.8;1.4;;;;;;;11.83;40.6084;947.4484;;;;
2020/01/16 11:28:15;;;;;;;5.8;1.6;;;;;;;11.86;39.11035;947.4434;;;;
2020/01/16 11:30:41;;;;;;;4.8;1.5;;;;;;;11.94;39.55176;947.4017;;;;
2020/01/16 11:33:05;;;;;;;4.6;1.4;;;;;;;11.99;40.64551;947.2614;;;;
2020/01/16 11:37:55;;;;;;;5.5;1.5;;;;;;;12.11;39.78516;947.2311;;;;
2020/01/16 11:40:38;;;;;;;5.7;1.6;;;;;;;12.28;40.45508;947.1842;;;;
2020/01/16 11:42:47;;;;;;;4.7;1.5;;;;;;;12.48;39.66992;947.1437;;;;
2020/01/16 11:45:26;;;;;;;6.4;1.6;;;;;;;12.73;39.5791;947.1288;;;;
2020/01/16 11:47:38;;;;;;;3.4;1.6;;;;;;;12.66;38.94141;947.099;;;;
2020/01/16 11:52:28;;;;;;;10.6;3.2;;;;;;;12.15;41.54395;947.0778;;;;
2020/01/16 11:57:18;;;;;;;12.8;2.8;;;;;;;12.28;41.68262;946.9519;;;;
2020/01/16 11:59:43;;;;;;;6.3;2.3;;;;;;;12.83;38.72656;946.8822;;;;
2020/01/16 12:02:14;;;;;;;8.4;2.4;;;;;;;13.04;37.91895;946.807;;;;
2020/01/16 12:04:38;;;;;;;7.8;2.2;;;;;;;12.56;40.28613;946.8359;;;;
2020/01/16 12:07:06;;;;;;;4.8;2.2;;;;;;;12.9;38.85938;946.8184;;;;
2020/01/16 12:09:39;;;;;;;4.1;1.5;;;;;;;12.95;39.2666;946.8183;;;;
2020/01/16 12:11:50;;;;;;;8.7;5;;;;;;;13.01;39.68555;946.7379;;;;
2020/01/16 12:14:17;;;;;;;5.3;1.8;;;;;;;13.33;38.72559;946.7154;;;;
2020/01/16 12:21:32;;;;;;;7.8;2.7;;;;;;;13.55;39.46973;946.5223;;;;
2020/01/16 12:23:57;;;;;;;5.3;1.7;;;;;;;13.83;39.08105;946.4522;;;;
2020/01/16 12:26:22;;;;;;;3.7;1.2;;;;;;;13.86;38.94531;946.5165;;;;
2020/01/16 12:28:47;;;;;;;2.1;1.2;;;;;;;13.89;38.91406;946.4361;;;;
2020/01/16 12:31:15;;;;;;;4.6;1.5;;;;;;;13.98;38.28809;946.4185;;;;
2020/01/16 12:33:40;;;;;;;3.7;1.2;;;;;;;13.95;38.68848;946.4086;;;;
2020/01/16 12:36:05;;;;;;;4.2;1.2;;;;;;;14.04;38.21387;946.3801;;;;
2020/01/16 12:38:30;;;;;;;3.6;1.4;;;;;;;14.1;38.5752;946.3166;;;;
2020/01/16 12:40:55;;;;;;;4;1.5;;;;;;;14.15;38.5459;946.3314;;;;
2020/01/16 12:43:20;;;;;;;3.2;1.4;;;;;;;13.99;38.85352;946.26;;;;
2020/01/16 12:45:45;;;;;;;4.4;1.3;;;;;;;14.1;39.02441;946.2902;;;;
2020/01/16 12:48:15;;;;;;;4.2;1.5;;;;;;;14.18;39.28418;946.2467;;;;
2020/01/16 12:50:46;;;;;;;5.2;1.3;;;;;;;13.81;39.97656;946.25;;;;
2020/01/16 12:53:11;;;;;;;2.2;1.3;;;;;;;13.98;39.66895;946.1782;;;;
2020/01/16 12:55:37;;;;;;;3.7;1.7;;;;;;;14.12;39.45215;946.1909;;;;
2020/01/16 12:58:02;;;;;;;3.7;1.4;;;;;;;13.98;39.90039;946.1502;;;;
2020/01/16 13:00:26;;;;;;;5;1.3;;;;;;;14.07;40.15039;946.2217;;;;
2020/01/16 13:02:52;;;;;;;3.8;1.4;;;;;;;13.84;40.20996;946.2545;;;;
2020/01/16 13:05:17;;;;;;;3.4;1.4;;;;;;;13.74;41.69531;946.1316;;;;
2020/01/16 13:07:42;;;;;;;3.4;1.4;;;;;;;13.57;41.98926;946.2249;;;;
2020/01/16 13:10:07;;;;;;;2.6;1.5;;;;;;;13.66;40.28418;946.1677;;;;
2020/01/16 13:12:32;;;;;;;3.1;1.4;;;;;;;13.76;40.32813;946.0742;;;;
2020/01/16 13:14:58;;;;;;;2.8;1.4;;;;;;;13.44;42.5752;946.0778;;;;
2020/01/16 13:17:23;;;;;;;3.3;1.5;;;;;;;13.26;42.31543;946.0539;;;;
2020/01/16 13:19:48;;;;;;;2.6;1.4;;;;;;;13.09;42.36914;946.0609;;;;
2020/01/16 13:22:13;;;;;;;3.7;1.6;;;;;;;12.74;43.76855;946.0101;;;;
2020/01/16 13:24:39;;;;;;;3.8;1.7;;;;;;;12.64;43.96484;946.0048;;;;
2020/01/16 13:27:04;;;;;;;2.3;1.5;;;;;;;12.83;43.29492;945.9222;;;;
2020/01/16 13:29:29;;;;;;;6.7;1.7;;;;;;;12.88;42.94434;946.0067;;;;
2020/01/16 13:31:55;;;;;;;3.7;1.8;;;;;;;13.01;43.69238;945.986;;;;
2020/01/16 13:34:20;;;;;;;6.3;1.8;;;;;;;13.32;43.05664;945.9297;;;;
2020/01/16 13:36:45;;;;;;;3.8;1.7;;;;;;;13.47;42.71582;945.9486;;;;
2020/01/16 13:39:10;;;;;;;5.7;1.8;;;;;;;13.64;42.57129;945.9225;;;;
2020/01/16 13:41:35;;;;;;;3.4;1.5;;;;;;;13.87;42.04102;945.9138;;;;
2020/01/16 13:44:00;;;;;;;5.5;1.7;;;;;;;14.11;41.5;945.9065;;;;
2020/01/16 13:46:26;;;;;;;3.6;1.6;;;;;;;14.05;41.56348;945.9164;;;;
2020/01/16 13:48:51;;;;;;;4.7;1.8;;;;;;;13.82;42.94531;945.8748;;;;
2020/01/16 13:51:16;;;;;;;4.5;1.8;;;;;;;13.84;43.37305;945.8583;;;;
2020/01/16 13:53:41;;;;;;;4.9;1.7;;;;;;;13.85;42.2002;945.8495;;;;
2020/01/16 13:56:06;;;;;;;6.4;2.3;;;;;;;14.18;42.23145;945.8414;;;;
2020/01/16 13:58:31;;;;;;;8.7;2.2;;;;;;;14.53;40.90723;945.7879;;;;
2020/01/16 14:00:56;;;;;;;4;1.8;;;;;;;15.17;39.21191;945.8257;;;;
2020/01/16 14:03:22;;;;;;;5.3;1.7;;;;;;;16.45;36.64258;945.8025;;;;
2020/01/16 14:05:47;;;;;;;3.9;1.8;;;;;;;18.42;33.12207;945.7667;;;;
2020/01/16 14:08:12;;;;;;;6.7;2;;;;;;;19.94;30.71582;945.7597;;;;
2020/01/16 14:10:41;;;;;;;3.8;1.6;;;;;;;20.51;29.7041;945.7502;;;;
2020/01/16 17:16:48;;;;;;;4.4;1.9;;;;;;;5.73;67.29102;946.3273;;;;
2020/01/16 17:19:54;;;;;;;37.4;9.2;;;;;;;5.52;68.18359;946.335;;;;
2020/01/16 17:22:19;;;;;;;26.2;12.5;;;;;;;5.63;67.45801;946.295;;;;
2020/01/16 17:24:44;;;;;;;32.6;14.5;;;;;;;5.48;67.68262;946.306;;;;
2020/01/16 17:27:09;;;;;;;40.4;16.3;;;;;;;5.29;68.48633;946.3094;;;;
2020/01/16 17:29:34;;;;;;;33.3;17.9;;;;;;;5.35;68.12402;946.3928;;;;
2020/01/16 17:32:00;;;;;;;46.4;20.2;;;;;;;5.41;67.91992;946.397;;;;
2020/01/16 17:34:25;;;;;;;42.3;22.1;;;;;;;5.27;68.42578;946.3844;;;;
2020/01/16 17:36:50;;;;;;;33.9;20;;;;;;;4.97;69.47363;946.4416;;;;
2020/01/16 17:39:15;;;;;;;36.9;20.2;;;;;;;5.3;68.12793;946.3937;;;;
2020/01/16 17:41:40;;;;;;;39.9;21;;;;;;;5.4;67.60059;946.3915;;;;
2020/01/16 17:44:05;;;;;;;34.4;20.3;;;;;;;5.4;67.38672;946.3425;;;;
2020/01/16 17:46:30;;;;;;;32.5;17.3;;;;;;;5.3;67.40527;946.317;;;;